Time;durP1;ratioP1;P1;durP2;ratioP2;P2;SDS_P1;SDS_P2;PMS_P1;PMS_P2;Temp;Humidity;BMP_temperature;BMP_pressure;BME280_temperature;BME280_humidity;BME280_pressure;Samples;Min_cycle;Max_cycle;Signal;HPM_P1;HPM_P2
2023/09/22 00:00:18;;;;;;;5.28;3.33;;;20.10;99.90;;;;;;4594596;19;20090;-70
2023/09/22 00:02:12;;;;;;;5.22;3.58;;;20.10;99.90;;;;;;4594446;19;20017;-70
2023/09/22 00:03:47;;;;;;;4.78;3.35;;;20.10;99.90;;;;;;4594673;19;20021;-70
2023/09/22 00:05:25;;;;;;;4.30;3.33;;;20.10;99.90;;;;;;4594597;19;20453;-70
2023/09/22 00:06:59;;;;;;;5.78;3.53;;;20.10;99.90;;;;;;4594840;19;20030;-70
2023/09/22 00:08:33;;;;;;;5.53;3.97;;;20.10;99.90;;;;;;4594732;19;20002;-70
2023/09/22 00:10:09;;;;;;;4.50;3.20;;;20.10;99.90;;;;;;4592480;19;20010;-70
2023/09/22 00:11:45;;;;;;;4.60;3.38;;;20.10;99.90;;;;;;4594067;19;20002;-70
2023/09/22 00:13:20;;;;;;;4.70;3.42;;;20.10;99.90;;;;;;4594366;19;20002;-70
2023/09/22 00:14:55;;;;;;;4.80;3.20;;;20.10;99.90;;;;;;4594372;19;20007;-70
2023/09/22 00:16:29;;;;;;;4.50;2.80;;;20.10;99.90;;;;;;4593395;19;20006;-70
2023/09/22 00:18:04;;;;;;;4.50;3.17;;;20.10;99.90;;;;;;4594454;19;20070;-70
2023/09/22 00:19:40;;;;;;;5.35;3.83;;;20.10;99.90;;;;;;4594427;19;20086;-69
2023/09/22 00:21:14;;;;;;;4.50;3.10;;;20.10;99.90;;;;;;4592897;19;20031;-70
2023/09/22 00:22:49;;;;;;;4.68;3.10;;;20.10;99.90;;;;;;4594445;19;20002;-70
2023/09/22 00:24:26;;;;;;;5.45;3.30;;;20.10;99.90;;;;;;4594487;19;20008;-70
2023/09/22 00:26:01;;;;;;;4.13;3.25;;;20.00;99.90;;;;;;4594241;19;20021;-70
2023/09/22 00:27:35;;;;;;;6.32;4.10;;;20.10;99.90;;;;;;4594403;19;20052;-70
2023/09/22 00:29:11;;;;;;;5.70;3.60;;;20.10;99.90;;;;;;4592722;19;20007;-70
2023/09/22 00:30:45;;;;;;;4.70;3.30;;;20.10;99.90;;;;;;4592445;19;20292;-69
2023/09/22 00:32:20;;;;;;;5.07;3.20;;;20.00;99.90;;;;;;4593241;19;20074;-70
2023/09/22 00:33:55;;;;;;;4.15;2.90;;;20.00;99.90;;;;;;4593698;19;20033;-70
2023/09/22 00:35:30;;;;;;;3.97;3.08;;;20.00;99.90;;;;;;4593891;19;20003;-70
2023/09/22 00:37:05;;;;;;;4.45;3.42;;;20.00;99.90;;;;;;4593873;19;20014;-70
2023/09/22 00:38:41;;;;;;;4.97;3.40;;;20.00;99.90;;;;;;4593978;19;20006;-69
2023/09/22 00:40:15;;;;;;;5.93;3.53;;;20.00;99.90;;;;;;4591621;19;20091;-70
2023/09/22 00:41:49;;;;;;;4.57;3.30;;;20.00;99.90;;;;;;4594010;19;20106;-70
2023/09/22 00:43:26;;;;;;;4.72;3.28;;;20.00;99.90;;;;;;4593874;19;20006;-70
2023/09/22 00:45:00;;;;;;;5.40;3.60;;;20.00;99.90;;;;;;4593964;19;19998;-70
2023/09/22 00:46:34;;;;;;;4.72;3.90;;;20.00;99.90;;;;;;4593569;19;20007;-70
2023/09/22 00:48:11;;;;;;;3.80;3.00;;;20.00;99.90;;;;;;4594043;19;20022;-70
2023/09/22 00:49:45;;;;;;;4.13;3.20;;;20.00;99.90;;;;;;4591758;19;20033;-70
2023/09/22 00:51:19;;;;;;;4.07;3.13;;;20.10;99.90;;;;;;4592169;19;20461;-70
2023/09/22 00:52:55;;;;;;;4.65;3.30;;;20.00;99.90;;;;;;4592085;19;20030;-70
2023/09/22 00:54:29;;;;;;;5.22;4.07;;;20.10;99.90;;;;;;4593455;19;20058;-70
2023/09/22 00:56:03;;;;;;;5.05;3.22;;;20.00;99.90;;;;;;4593539;19;20002;-70
2023/09/22 00:57:38;;;;;;;4.30;3.25;;;20.00;99.90;;;;;;4593497;19;20027;-70
2023/09/22 00:59:12;;;;;;;3.78;2.75;;;20.00;99.90;;;;;;4592066;19;20006;-70
2023/09/22 01:00:52;;;;;;;4.90;2.90;;;20.10;99.90;;;;;;4590567;19;20011;-70
2023/09/22 01:02:29;;;;;;;4.45;3.17;;;20.10;99.90;;;;;;4592339;19;20002;-70
2023/09/22 01:04:03;;;;;;;4.90;3.47;;;20.00;99.90;;;;;;4593302;19;20288;-70
2023/09/22 01:05:38;;;;;;;5.03;3.45;;;20.00;99.90;;;;;;4593474;19;20003;-70
2023/09/22 01:07:16;;;;;;;4.15;2.95;;;20.00;99.90;;;;;;4593532;19;20007;-70
2023/09/22 01:08:50;;;;;;;4.25;2.75;;;20.10;99.90;;;;;;4591847;19;20078;-70
2023/09/22 01:10:37;;;;;;;4.22;2.97;;;20.10;99.90;;;;;;4591850;19;20024;-69
2023/09/22 01:12:14;;;;;;;3.97;3.03;;;20.10;99.90;;;;;;4592857;19;20007;-70
2023/09/22 01:13:48;;;;;;;5.25;3.25;;;20.10;99.90;;;;;;4593046;19;20007;-70
2023/09/22 01:15:21;;;;;;;5.38;3.47;;;20.10;99.90;;;;;;4593105;19;20335;-69
2023/09/22 01:16:58;;;;;;;5.13;3.60;;;20.10;99.90;;;;;;4593185;19;20430;-69
2023/09/22 01:18:33;;;;;;;4.75;3.28;;;20.10;99.90;;;;;;4593285;19;20069;-69
2023/09/22 01:20:10;;;;;;;3.95;2.95;;;20.00;99.90;;;;;;4592086;19;20025;-70
2023/09/22 01:21:51;;;;;;;4.00;3.20;;;20.00;99.90;;;;;;4593018;19;20007;-70
2023/09/22 01:23:26;;;;;;;4.50;3.55;;;20.10;99.90;;;;;;4593233;19;20288;-70
2023/09/22 01:25:00;;;;;;;6.78;4.10;;;20.00;99.90;;;;;;4592814;19;19999;-69
2023/09/22 01:26:36;;;;;;;4.88;3.78;;;20.00;99.90;;;;;;4593380;19;20011;-70
2023/09/22 01:28:10;;;;;;;5.93;3.92;;;20.00;99.90;;;;;;4593306;19;20005;-70
2023/09/22 01:29:45;;;;;;;5.18;3.92;;;20.00;99.90;;;;;;4591016;19;20006;-70
2023/09/22 01:31:22;;;;;;;6.32;4.38;;;20.00;99.90;;;;;;4592531;19;20019;-70
2023/09/22 01:32:56;;;;;;;4.88;4.13;;;20.00;99.90;;;;;;4591596;19;20013;-70
2023/09/22 01:34:31;;;;;;;5.18;4.00;;;20.00;99.90;;;;;;4592895;19;20078;-70
2023/09/22 01:36:06;;;;;;;4.35;3.40;;;20.00;99.90;;;;;;4591749;19;20006;-70
2023/09/22 01:37:53;;;;;;;4.97;3.97;;;20.00;99.90;;;;;;4592434;19;20015;-70
2023/09/22 01:39:26;;;;;;;5.05;3.85;;;20.00;99.90;;;;;;4591592;19;20062;-70
2023/09/22 01:41:02;;;;;;;7.18;4.47;;;19.90;99.90;;;;;;4590986;19;20034;-70
2023/09/22 01:42:37;;;;;;;6.35;3.75;;;20.00;99.90;;;;;;4591463;19;20009;-70
2023/09/22 01:44:12;;;;;;;6.47;3.92;;;20.00;99.90;;;;;;4592057;19;20010;-70
2023/09/22 01:45:47;;;;;;;5.72;4.18;;;20.00;99.90;;;;;;4592765;19;20006;-69
2023/09/22 01:47:22;;;;;;;5.40;3.42;;;19.90;99.90;;;;;;4592252;19;20026;-70
2023/09/22 01:48:58;;;;;;;3.95;3.10;;;19.90;99.90;;;;;;4592386;19;19998;-70
2023/09/22 01:50:42;;;;;;;4.85;3.70;;;19.90;99.90;;;;;;4589836;19;20097;-70
2023/09/22 01:52:17;;;;;;;4.63;3.42;;;19.90;99.90;;;;;;4587879;19;20002;-70
2023/09/22 01:53:55;;;;;;;5.40;4.53;;;19.90;99.90;;;;;;4592161;19;20021;-70
2023/09/22 01:55:31;;;;;;;4.75;3.90;;;19.90;99.90;;;;;;4592389;19;20006;-70
2023/09/22 01:57:06;;;;;;;4.85;3.72;;;19.90;99.90;;;;;;4590933;19;20391;-70
2023/09/22 01:58:41;;;;;;;5.05;3.85;;;19.90;99.90;;;;;;4592073;19;20075;-69
2023/09/22 02:00:18;;;;;;;5.00;3.58;;;19.90;99.90;;;;;;4591337;19;20027;-70
2023/09/22 02:01:53;;;;;;;4.65;3.42;;;19.90;99.90;;;;;;4590841;19;20010;-70
2023/09/22 02:03:27;;;;;;;5.15;4.00;;;19.80;99.90;;;;;;4591772;19;19998;-70
2023/09/22 02:05:03;;;;;;;5.53;4.20;;;19.80;99.90;;;;;;4592347;19;20006;-70
2023/09/22 02:06:39;;;;;;;6.68;3.90;;;19.80;99.90;;;;;;4590685;19;20002;-70
2023/09/22 02:08:13;;;;;;;5.68;3.80;;;19.80;99.90;;;;;;4591185;19;20003;-70
2023/09/22 02:09:50;;;;;;;5.38;3.97;;;19.80;99.90;;;;;;4591421;19;20403;-70
2023/09/22 02:11:25;;;;;;;4.95;3.97;;;19.80;99.90;;;;;;4591758;19;20035;-70
2023/09/22 02:12:59;;;;;;;5.60;4.30;;;19.80;99.90;;;;;;4591186;19;20002;-70
2023/09/22 02:14:35;;;;;;;4.22;3.75;;;19.80;99.90;;;;;;4592247;19;20010;-70
2023/09/22 02:16:11;;;;;;;4.72;3.47;;;19.80;99.90;;;;;;4591842;19;20422;-70
2023/09/22 02:17:49;;;;;;;4.50;3.85;;;19.80;99.90;;;;;;4592107;19;20005;-70
2023/09/22 02:19:26;;;;;;;5.40;3.75;;;19.80;99.90;;;;;;4591138;19;20446;-70
2023/09/22 02:21:00;;;;;;;4.72;3.70;;;19.80;99.90;;;;;;4590091;19;20010;-70
2023/09/22 02:22:35;;;;;;;5.25;3.50;;;19.80;99.90;;;;;;4591772;19;20062;-70
2023/09/22 02:24:10;;;;;;;5.72;3.95;;;19.80;99.90;;;;;;4591777;19;20043;-70
2023/09/22 02:25:45;;;;;;;5.00;3.67;;;19.80;99.90;;;;;;4591741;19;20074;-70
2023/09/22 02:27:20;;;;;;;5.10;3.85;;;19.80;99.90;;;;;;4591627;19;19999;-70
2023/09/22 02:28:56;;;;;;;6.32;4.35;;;19.80;99.90;;;;;;4590568;19;20022;-70
2023/09/22 02:30:30;;;;;;;5.18;4.05;;;19.80;99.90;;;;;;4590493;19;20102;-70
2023/09/22 02:32:04;;;;;;;5.15;3.88;;;19.80;99.90;;;;;;4591533;19;20010;-70
2023/09/22 02:33:39;;;;;;;5.70;4.18;;;19.80;99.90;;;;;;4590275;19;20003;-70
2023/09/22 02:35:13;;;;;;;5.70;4.38;;;19.80;99.90;;;;;;4591117;19;20069;-70
2023/09/22 02:36:50;;;;;;;5.65;4.32;;;19.80;99.90;;;;;;4591814;19;19999;-70
2023/09/22 02:38:27;;;;;;;5.88;4.32;;;19.80;99.90;;;;;;4591659;19;20011;-70
2023/09/22 02:40:01;;;;;;;5.20;4.50;;;19.70;99.90;;;;;;4590850;19;20030;-70
2023/09/22 02:41:35;;;;;;;6.65;4.38;;;19.70;99.90;;;;;;4591729;19;20019;-70
2023/09/22 02:43:12;;;;;;;6.45;4.40;;;19.70;99.90;;;;;;4590438;19;20010;-70
2023/09/22 02:44:46;;;;;;;6.07;4.95;;;19.70;99.90;;;;;;4590938;19;20010;-70
2023/09/22 02:46:20;;;;;;;5.75;4.65;;;19.80;99.90;;;;;;4591696;19;20026;-70
2023/09/22 02:47:57;;;;;;;6.68;4.43;;;19.70;99.90;;;;;;4591492;19;20036;-70
2023/09/22 02:49:32;;;;;;;6.22;4.00;;;19.70;99.90;;;;;;4591619;19;20073;-70
2023/09/22 02:51:10;;;;;;;5.78;4.50;;;19.70;99.90;;;;;;4590030;19;20010;-70
2023/09/22 02:52:45;;;;;;;6.07;5.25;;;19.70;99.90;;;;;;4590498;19;20005;-70
2023/09/22 02:54:19;;;;;;;6.85;4.68;;;19.70;99.90;;;;;;4591510;19;20076;-70
2023/09/22 02:55:53;;;;;;;5.95;4.38;;;19.70;99.90;;;;;;4591505;19;20003;-70
2023/09/22 02:57:30;;;;;;;6.10;4.30;;;19.70;99.90;;;;;;4591151;19;20442;-70
2023/09/22 02:59:05;;;;;;;5.82;4.30;;;19.70;99.90;;;;;;4591216;19;20009;-70
2023/09/22 03:00:45;;;;;;;5.47;4.13;;;19.60;99.90;;;;;;4590144;19;20007;-70
2023/09/22 03:02:21;;;;;;;6.30;4.03;;;19.60;99.90;;;;;;4589897;19;20013;-70
2023/09/22 03:03:55;;;;;;;5.20;4.22;;;19.60;99.90;;;;;;4593698;19;19998;-70
2023/09/22 03:05:30;;;;;;;5.70;4.25;;;19.60;99.90;;;;;;4594744;19;20069;-70
2023/09/22 03:07:06;;;;;;;5.55;4.35;;;19.60;99.90;;;;;;4594787;19;20006;-70
2023/09/22 03:08:44;;;;;;;5.80;3.95;;;19.60;99.90;;;;;;4595371;19;20010;-70
2023/09/22 03:10:17;;;;;;;5.60;4.78;;;19.60;99.90;;;;;;4594397;19;20013;-70
2023/09/22 03:11:54;;;;;;;5.32;4.15;;;19.60;99.90;;;;;;4595822;19;20002;-70
2023/09/22 03:13:29;;;;;;;5.18;4.30;;;19.60;99.90;;;;;;4595723;19;20430;-70
2023/09/22 03:15:04;;;;;;;5.32;4.40;;;19.60;99.90;;;;;;4594309;19;20003;-70
2023/09/22 03:16:42;;;;;;;6.30;4.63;;;19.60;99.90;;;;;;4594593;19;20038;-70
2023/09/22 03:18:17;;;;;;;5.80;4.38;;;19.60;99.90;;;;;;4595369;19;20026;-70
2023/09/22 03:19:51;;;;;;;6.03;4.22;;;19.60;99.90;;;;;;4594818;19;20009;-69
2023/09/22 03:21:26;;;;;;;4.38;3.92;;;19.60;99.90;;;;;;4593959;19;20019;-70
2023/09/22 03:23:00;;;;;;;4.68;3.65;;;19.60;99.90;;;;;;4595439;19;20506;-70
2023/09/22 03:24:35;;;;;;;5.18;4.10;;;19.60;99.90;;;;;;4595350;19;19998;-70
2023/09/22 03:26:10;;;;;;;6.10;3.78;;;19.60;99.90;;;;;;4593952;19;20069;-70
2023/09/22 03:27:44;;;;;;;6.32;3.88;;;19.60;99.90;;;;;;4595253;19;20435;-70
2023/09/22 03:29:20;;;;;;;5.25;3.85;;;19.60;99.90;;;;;;4595588;19;20003;-70
2023/09/22 03:30:58;;;;;;;4.97;3.90;;;19.50;99.90;;;;;;4593703;19;20083;-70
2023/09/22 03:32:33;;;;;;;5.88;4.50;;;19.60;99.90;;;;;;4593230;19;20014;-70
2023/09/22 03:34:08;;;;;;;5.20;3.92;;;19.60;99.90;;;;;;4594944;19;20002;-70
2023/09/22 03:35:43;;;;;;;6.70;4.25;;;19.50;99.90;;;;;;4595276;19;20010;-70
2023/09/22 03:37:17;;;;;;;5.32;4.63;;;19.50;99.90;;;;;;4595250;19;20017;-70
2023/09/22 03:38:52;;;;;;;4.63;4.03;;;19.50;99.90;;;;;;4595366;19;20002;-70
2023/09/22 03:40:40;;;;;;;5.70;4.13;;;19.60;99.90;;;;;;4593887;19;20015;-70
2023/09/22 03:42:15;;;;;;;6.50;4.50;;;19.50;99.90;;;;;;4594055;19;20088;-70
2023/09/22 03:43:49;;;;;;;5.63;3.83;;;19.60;99.90;;;;;;4594529;19;20011;-70
2023/09/22 03:45:24;;;;;;;5.13;3.88;;;19.50;99.90;;;;;;4595034;19;20011;-70
2023/09/22 03:46:58;;;;;;;4.35;3.63;;;19.50;99.90;;;;;;4595260;19;20418;-70
2023/09/22 03:48:32;;;;;;;5.95;4.30;;;19.60;99.90;;;;;;4594974;19;20073;-70
2023/09/22 03:50:08;;;;;;;5.57;3.80;;;19.60;99.90;;;;;;4593930;19;20011;-70
2023/09/22 03:51:42;;;;;;;4.63;3.92;;;19.60;99.90;;;;;;4594764;19;20011;-69
2023/09/22 03:53:17;;;;;;;5.50;3.55;;;19.60;99.90;;;;;;4593436;19;20058;-70
2023/09/22 03:54:52;;;;;;;5.68;3.88;;;19.60;99.90;;;;;;4594768;19;20006;-70
2023/09/22 03:56:28;;;;;;;6.10;4.15;;;19.60;99.90;;;;;;4593366;19;20320;-70
2023/09/22 03:58:04;;;;;;;5.80;4.05;;;19.60;99.90;;;;;;4593950;19;20317;-71
2023/09/22 03:59:39;;;;;;;5.88;4.50;;;19.60;99.90;;;;;;4594557;19;20014;-70
2023/09/22 04:01:12;;;;;;;12.20;4.18;;;19.60;99.90;;;;;;4594406;19;20052;-70
2023/09/22 04:02:47;;;;;;;6.93;4.30;;;19.60;99.90;;;;;;4594181;19;20006;-70
2023/09/22 04:04:24;;;;;;;5.07;4.00;;;19.60;99.90;;;;;;4592757;19;20086;-70
2023/09/22 04:05:59;;;;;;;5.35;4.13;;;19.60;99.90;;;;;;4593461;19;20003;-70
2023/09/22 04:07:33;;;;;;;5.55;4.20;;;19.60;99.90;;;;;;4592908;19;20002;-69
2023/09/22 04:09:09;;;;;;;5.18;3.95;;;19.60;99.90;;;;;;4594443;19;20006;-70
2023/09/22 04:10:44;;;;;;;4.95;3.95;;;19.60;99.90;;;;;;4592447;19;20014;-70
2023/09/22 04:12:17;;;;;;;5.32;4.43;;;19.60;99.90;;;;;;4593557;19;20003;-70
2023/09/22 04:13:54;;;;;;;5.30;4.00;;;19.60;99.90;;;;;;4593851;19;20022;-70
2023/09/22 04:15:28;;;;;;;6.03;4.10;;;19.60;99.90;;;;;;4591707;19;20445;-71
2023/09/22 04:17:02;;;;;;;5.20;3.88;;;19.60;99.90;;;;;;4593811;19;20006;-71
2023/09/22 04:18:39;;;;;;;5.40;3.92;;;19.60;99.90;;;;;;4594167;19;20013;-69
2023/09/22 04:20:16;;;;;;;6.97;3.95;;;19.80;99.90;;;;;;4592559;19;20312;-72
2023/09/22 04:21:52;;;;;;;5.65;3.63;;;20.20;99.90;;;;;;4593666;19;20014;-71
2023/09/22 04:23:28;;;;;;;4.78;3.40;;;20.50;99.90;;;;;;4593780;19;20013;-71
2023/09/22 04:25:07;;;;;;;6.22;3.63;;;20.70;99.90;;;;;;4593947;19;20002;-71
2023/09/22 04:26:48;;;;;;;5.47;3.80;;;20.90;99.90;;;;;;4592488;19;20003;-71
2023/09/22 04:28:25;;;;;;;6.43;3.93;;;21.00;99.90;;;;;;4593553;19;20025;-71
2023/09/22 04:30:00;;;;;;;6.63;3.55;;;21.10;99.90;;;;;;4592725;19;20437;-71
2023/09/22 04:31:34;;;;;;;5.63;3.13;;;21.20;99.90;;;;;;4592127;19;20010;-71
2023/09/22 04:33:11;;;;;;;5.82;3.80;;;21.30;99.90;;;;;;4592466;19;20327;-71
2023/09/22 04:34:47;;;;;;;6.07;3.30;;;21.40;99.90;;;;;;4593869;19;20017;-71
2023/09/22 04:36:22;;;;;;;5.38;3.65;;;21.50;99.90;;;;;;4594849;19;20290;-71
2023/09/22 04:37:57;;;;;;;5.25;3.88;;;21.60;99.90;;;;;;4594899;19;20007;-72
2023/09/22 04:39:32;;;;;;;5.65;3.85;;;21.70;99.90;;;;;;4594783;19;20009;-72
2023/09/22 04:41:08;;;;;;;4.38;3.17;;;21.70;99.90;;;;;;4591449;19;20018;-72
2023/09/22 04:42:44;;;;;;;5.30;3.70;;;21.80;99.90;;;;;;4594461;19;20010;-72
2023/09/22 04:44:20;;;;;;;5.22;3.40;;;21.90;99.90;;;;;;4594658;19;20536;-71
2023/09/22 04:45:54;;;;;;;6.55;3.65;;;21.90;99.90;;;;;;4594394;19;20026;-71
2023/09/22 04:47:35;;;;;;;5.53;3.63;;;22.00;99.90;;;;;;4594135;19;20006;-71
2023/09/22 04:49:10;;;;;;;5.15;3.58;;;22.00;99.90;;;;;;4594615;19;20007;-71
2023/09/22 04:50:54;;;;;;;5.25;3.35;;;22.00;99.90;;;;;;4592839;19;20011;-71
2023/09/22 04:52:41;;;;;;;5.43;3.92;;;22.10;99.90;;;;;;4591992;19;20081;-71
2023/09/22 04:54:15;;;;;;;8.70;5.05;;;22.10;99.90;;;;;;4594058;19;20310;-71
2023/09/22 04:55:59;;;;;;;6.22;3.97;;;22.00;99.90;;;;;;4594116;19;20303;-72
2023/09/22 04:57:34;;;;;;;5.68;4.32;;;22.00;99.90;;;;;;4592846;19;20006;-72
2023/09/22 04:59:09;;;;;;;5.53;4.00;;;22.00;99.90;;;;;;4594000;19;20003;-72
2023/09/22 05:00:43;;;;;;;6.43;4.20;;;22.00;99.90;;;;;;4591559;19;20017;-72
2023/09/22 05:02:18;;;;;;;7.78;4.95;;;22.00;99.90;;;;;;4592998;19;20010;-71
2023/09/22 05:03:54;;;;;;;6.25;4.53;;;22.00;99.90;;;;;;4593700;19;20003;-72
2023/09/22 05:05:30;;;;;;;8.05;3.75;;;22.00;99.90;;;;;;4594253;19;20002;-71
2023/09/22 05:07:05;;;;;;;6.60;4.40;;;22.00;99.90;;;;;;4594308;19;20013;-71
2023/09/22 05:08:39;;;;;;;6.07;4.07;;;22.00;99.90;;;;;;4593907;19;20434;-72
2023/09/22 05:10:13;;;;;;;5.70;3.60;;;22.00;99.90;;;;;;4593260;19;20002;-71
2023/09/22 05:11:48;;;;;;;6.35;4.05;;;22.00;99.90;;;;;;4593725;19;20318;-71
2023/09/22 05:13:22;;;;;;;7.90;4.15;;;22.00;99.90;;;;;;4593735;19;20044;-71
2023/09/22 05:14:58;;;;;;;5.47;3.88;;;22.00;99.90;;;;;;4592339;19;20002;-71
2023/09/22 05:16:33;;;;;;;6.75;3.92;;;22.00;99.90;;;;;;4592427;19;20014;-72
2023/09/22 05:18:12;;;;;;;6.38;3.70;;;22.00;99.90;;;;;;4592345;19;19998;-72
2023/09/22 05:19:47;;;;;;;6.35;4.05;;;22.00;99.90;;;;;;4593199;19;20312;-72
2023/09/22 05:21:22;;;;;;;6.00;3.83;;;22.00;99.90;;;;;;4592808;19;20027;-71
2023/09/22 05:22:56;;;;;;;8.20;3.95;;;22.00;99.90;;;;;;4593521;19;20010;-71
2023/09/22 05:24:31;;;;;;;7.30;4.25;;;22.00;99.90;;;;;;4592177;19;20003;-71
2023/09/22 05:26:07;;;;;;;7.47;4.15;;;22.00;99.90;;;;;;4591787;19;20050;-71
2023/09/22 05:27:45;;;;;;;7.03;4.45;;;22.00;99.90;;;;;;4590869;19;20019;-71
2023/09/22 05:29:19;;;;;;;4.88;3.65;;;22.00;99.90;;;;;;4593142;19;20010;-71
2023/09/22 05:30:54;;;;;;;7.25;3.80;;;22.00;99.90;;;;;;4591764;19;20019;-72
2023/09/22 05:32:28;;;;;;;7.22;4.00;;;22.00;99.90;;;;;;4592561;19;20022;-71
2023/09/22 05:34:03;;;;;;;10.75;4.38;;;22.00;99.90;;;;;;4593137;19;20026;-71
2023/09/22 05:35:38;;;;;;;7.43;3.72;;;22.00;99.90;;;;;;4593247;19;20302;-71
2023/09/22 05:37:12;;;;;;;6.32;4.20;;;21.90;99.90;;;;;;4592768;19;20003;-71
2023/09/22 05:38:46;;;;;;;6.70;4.18;;;22.00;99.90;;;;;;4593136;19;19999;-71
2023/09/22 05:40:21;;;;;;;5.75;3.60;;;22.00;99.90;;;;;;4592611;19;20070;-72
2023/09/22 05:41:56;;;;;;;6.32;3.60;;;22.00;99.90;;;;;;4593340;19;20006;-72
2023/09/22 05:43:33;;;;;;;6.25;3.85;;;22.00;99.90;;;;;;4593658;19;20026;-72
2023/09/22 05:45:09;;;;;;;5.32;3.97;;;22.00;99.90;;;;;;4593214;19;20033;-72
2023/09/22 05:46:43;;;;;;;6.57;3.78;;;22.00;99.90;;;;;;4593371;19;20514;-72
2023/09/22 05:48:17;;;;;;;7.18;3.35;;;22.00;99.90;;;;;;4592022;19;20002;-72
2023/09/22 05:49:52;;;;;;;6.72;4.15;;;22.00;99.90;;;;;;4592108;19;20326;-72
2023/09/22 05:51:32;;;;;;;4.72;3.40;;;22.00;99.90;;;;;;4593248;19;20009;-72
2023/09/22 05:53:11;;;;;;;7.93;4.40;;;22.00;99.90;;;;;;4590233;19;20010;-71
2023/09/22 05:55:01;;;;;;;6.63;4.00;;;22.00;99.90;;;;;;4592301;19;20040;-72
2023/09/22 05:56:40;;;;;;;5.30;3.30;;;22.00;99.90;;;;;;4592636;19;20020;-71
2023/09/22 05:58:19;;;;;;;7.15;3.78;;;22.00;99.90;;;;;;4591815;19;20430;-72
2023/09/22 06:00:18;;;;;;;6.45;3.60;;;22.00;99.90;;;;;;4590155;19;20011;-72
2023/09/22 06:02:00;;;;;;;6.60;3.58;;;22.00;99.90;;;;;;4591492;19;20315;-72
2023/09/22 06:03:42;;;;;;;6.93;3.17;;;22.00;99.90;;;;;;4591371;19;20023;-71
2023/09/22 06:05:18;;;;;;;6.32;3.80;;;22.10;99.90;;;;;;4591308;19;20013;-72
2023/09/22 06:06:55;;;;;;;6.90;3.63;;;22.10;99.90;;;;;;4592353;19;20300;-72
2023/09/22 06:08:31;;;;;;;5.47;3.05;;;22.20;99.90;;;;;;4593109;19;20054;-72
2023/09/22 06:10:09;;;;;;;8.70;3.72;;;22.20;99.90;;;;;;4592552;19;20009;-72
2023/09/22 06:11:45;;;;;;;5.95;3.55;;;22.30;99.90;;;;;;4593012;19;20006;-72
2023/09/22 06:13:22;;;;;;;5.88;3.63;;;22.40;99.90;;;;;;4590237;19;20006;-72
2023/09/22 06:15:04;;;;;;;6.50;3.95;;;22.40;99.90;;;;;;4592600;19;20006;-72
2023/09/22 06:16:55;;;;;;;7.60;4.45;;;22.50;99.90;;;;;;4592469;19;20476;-72
2023/09/22 06:18:41;;;;;;;4.18;3.00;;;22.60;99.90;;;;;;4591029;19;20013;-71
2023/09/22 06:20:25;;;;;;;8.43;4.38;;;22.60;99.90;;;;;;4589803;19;20038;-72
2023/09/22 06:22:04;;;;;;;4.45;3.35;;;22.70;99.90;;;;;;4592348;19;20003;-72
2023/09/22 06:23:39;;;;;;;7.57;4.00;;;22.70;99.90;;;;;;4592500;19;20426;-71
2023/09/22 06:25:13;;;;;;;6.03;4.07;;;22.70;99.90;;;;;;4592258;19;20003;-71
2023/09/22 06:26:50;;;;;;;5.00;3.75;;;22.80;99.90;;;;;;4591950;19;20017;-71
2023/09/22 06:28:28;;;;;;;5.05;3.42;;;22.80;99.90;;;;;;4591771;19;20355;-71
2023/09/22 06:30:10;;;;;;;4.97;3.60;;;22.80;99.90;;;;;;4590093;19;20018;-71
2023/09/22 06:31:50;;;;;;;8.05;4.05;;;22.80;99.90;;;;;;4591585;19;20027;-72
2023/09/22 06:33:28;;;;;;;5.55;3.55;;;22.80;99.90;;;;;;4589139;19;20011;-71
2023/09/22 06:35:12;;;;;;;7.95;3.58;;;22.90;99.90;;;;;;4590159;19;20062;-71
2023/09/22 06:36:49;;;;;;;7.70;3.85;;;22.80;99.90;;;;;;4591281;19;20011;-71
2023/09/22 06:38:23;;;;;;;7.53;3.50;;;22.90;99.90;;;;;;4590335;19;20015;-71
2023/09/22 06:39:57;;;;;;;5.78;3.78;;;22.80;99.90;;;;;;4590951;19;20011;-71
2023/09/22 06:41:34;;;;;;;8.15;3.60;;;22.80;99.90;;;;;;4591945;19;20011;-71
2023/09/22 06:43:08;;;;;;;6.78;3.65;;;22.80;99.90;;;;;;4592407;19;20080;-71
2023/09/22 06:44:43;;;;;;;5.97;3.38;;;22.90;99.90;;;;;;4591953;19;20006;-71
2023/09/22 06:46:22;;;;;;;6.03;3.58;;;22.90;99.90;;;;;;4591986;19;20010;-71
2023/09/22 06:48:05;;;;;;;7.07;3.97;;;22.80;99.90;;;;;;4590620;19;20014;-71
2023/09/22 06:49:41;;;;;;;5.15;3.28;;;22.80;99.90;;;;;;4590643;19;20007;-70
2023/09/22 06:51:18;;;;;;;6.00;3.92;;;22.90;99.90;;;;;;4591303;19;20002;-71
2023/09/22 06:52:51;;;;;;;5.80;3.75;;;22.90;99.90;;;;;;4589764;19;20081;-71
2023/09/22 06:54:26;;;;;;;7.28;4.25;;;22.90;99.90;;;;;;4591342;19;20330;-70
2023/09/22 06:56:06;;;;;;;7.43;3.75;;;22.90;99.90;;;;;;4592159;19;20019;-71
2023/09/22 06:57:40;;;;;;;4.90;4.07;;;22.80;99.90;;;;;;4591972;19;20009;-71
2023/09/22 06:59:14;;;;;;;5.45;4.05;;;22.90;99.90;;;;;;4591639;19;20527;-71
2023/09/22 07:00:51;;;;;;;6.53;4.70;;;21.50;99.90;;;;;;4590633;19;20336;-71
2023/09/22 07:02:25;;;;;;;6.47;5.35;;;20.80;99.90;;;;;;4590718;19;20005;-70
2023/09/22 09:32:45;;;;;;;4.95;3.60;;;22.20;99.90;;;;;;4556106;19;20016;-78
2023/09/22 09:34:23;;;;;;;5.13;3.50;;;22.20;99.90;;;;;;4592727;19;20010;-76
2023/09/22 09:35:57;;;;;;;8.82;4.03;;;22.20;99.90;;;;;;4592677;19;20027;-74
2023/09/22 09:37:32;;;;;;;6.00;3.40;;;22.20;99.90;;;;;;4592797;19;20038;-72
2023/09/22 09:39:10;;;;;;;4.95;3.42;;;22.30;99.90;;;;;;4591703;19;20306;-74
2023/09/22 09:40:45;;;;;;;5.53;3.53;;;22.30;99.90;;;;;;4593185;19;20011;-74
2023/09/22 09:42:22;;;;;;;6.32;3.58;;;22.30;99.90;;;;;;4592001;19;20009;-73
2023/09/22 09:43:58;;;;;;;8.63;3.83;;;22.30;99.90;;;;;;4593048;19;19998;-74
2023/09/22 09:45:33;;;;;;;6.10;3.75;;;22.30;99.90;;;;;;4591878;19;20002;-74
2023/09/22 09:47:07;;;;;;;5.65;3.88;;;22.40;99.90;;;;;;4593186;19;20002;-74
2023/09/22 09:48:43;;;;;;;4.25;3.22;;;22.30;99.90;;;;;;4591776;19;20031;-73
2023/09/22 09:50:18;;;;;;;7.55;3.78;;;22.40;99.90;;;;;;4592776;19;20009;-73
2023/09/22 09:51:52;;;;;;;6.75;3.13;;;22.40;99.90;;;;;;4591772;19;20002;-73
2023/09/22 09:53:38;;;;;;;5.88;2.95;;;22.40;99.90;;;;;;4591553;19;20011;-74
2023/09/22 09:55:14;;;;;;;4.85;3.00;;;22.40;99.90;;;;;;4591776;19;20030;-73
2023/09/22 09:56:49;;;;;;;6.00;3.22;;;22.40;99.90;;;;;;4591730;19;20007;-73
2023/09/22 09:58:31;;;;;;;5.72;3.47;;;22.50;99.90;;;;;;4591736;19;20018;-73
2023/09/22 10:00:11;;;;;;;5.15;2.80;;;22.50;99.90;;;;;;4591957;19;20006;-74
2023/09/22 10:01:46;;;;;;;4.07;2.88;;;22.50;99.90;;;;;;4593056;19;20006;-74
2023/09/22 10:03:23;;;;;;;3.90;2.30;;;22.50;99.90;;;;;;4592180;19;20006;-74
2023/09/22 10:04:58;;;;;;;4.05;2.20;;;22.50;99.90;;;;;;4591562;19;20023;-74
2023/09/22 10:06:32;;;;;;;4.72;2.42;;;22.50;99.90;;;;;;4592467;19;20328;-74
2023/09/22 10:08:08;;;;;;;5.28;2.70;;;22.60;99.90;;;;;;4592843;19;20006;-71
2023/09/22 10:09:42;;;;;;;7.43;3.00;;;22.60;99.90;;;;;;4591343;19;20304;-76
2023/09/22 10:11:17;;;;;;;4.32;2.75;;;22.60;99.90;;;;;;4591647;19;20002;-88
2023/09/22 10:12:53;;;;;;;3.85;2.72;;;22.60;99.90;;;;;;4588429;19;20006;-74
2023/09/22 10:14:46;;;;;;;8.05;3.08;;;22.60;99.90;;;;;;4592331;19;20002;-74
2023/09/22 10:16:31;;;;;;;5.35;2.78;;;22.60;99.90;;;;;;4591629;19;20006;-74
2023/09/22 10:18:07;;;;;;;4.35;2.60;;;22.60;99.90;;;;;;4591332;19;20018;-74
2023/09/22 10:19:45;;;;;;;4.57;2.60;;;22.70;99.90;;;;;;4592233;19;20066;-71
2023/09/22 10:21:32;;;;;;;5.68;2.80;;;22.70;99.90;;;;;;4592445;19;20429;-71
2023/09/22 10:23:17;;;;;;;4.90;2.88;;;22.70;99.90;;;;;;4590503;19;20346;-71
2023/09/22 10:25:15;;;;;;;4.43;3.03;;;22.60;99.90;;;;;;4592513;19;20029;-72
2023/09/22 10:26:56;;;;;;;4.10;2.80;;;22.70;99.90;;;;;;4592265;19;20021;-72
2023/09/22 10:28:31;;;;;;;;;;;22.70;99.90;;;;;;4593324;19;20070;-71
2023/09/22 10:30:07;;;;;;;4.82;2.78;;;22.70;99.90;;;;;;4592301;19;19919;-72
2023/09/22 10:32:21;;;;;;;5.18;2.97;;;22.70;99.90;;;;;;4590961;19;20010;-72
2023/09/22 10:33:57;;;;;;;5.75;2.63;;;22.70;99.90;;;;;;4591258;19;20022;-72
2023/09/22 10:35:40;;;;;;;4.15;2.92;;;22.70;99.90;;;;;;4592190;19;20100;-71
2023/09/22 10:37:15;;;;;;;5.13;3.22;;;22.70;99.90;;;;;;4590857;19;20481;-71
2023/09/22 10:38:55;;;;;;;4.15;2.78;;;22.70;99.90;;;;;;4591970;19;20006;-71
2023/09/22 10:40:30;;;;;;;6.80;3.45;;;22.80;99.90;;;;;;4591180;19;20010;-72
2023/09/22 10:42:04;;;;;;;4.25;3.15;;;22.80;99.90;;;;;;4591885;19;20013;-72
2023/09/22 10:43:40;;;;;;;5.95;3.22;;;22.80;99.90;;;;;;4589388;19;20011;-72
2023/09/22 10:45:17;;;;;;;5.13;2.80;;;22.80;99.90;;;;;;4590222;19;20017;-72
2023/09/22 10:46:58;;;;;;;5.55;3.22;;;22.80;99.90;;;;;;4591367;19;20003;-71
2023/09/22 10:48:37;;;;;;;5.88;2.85;;;22.90;99.90;;;;;;4591618;19;20086;-72
2023/09/22 10:50:19;;;;;;;5.97;4.13;;;22.90;99.90;;;;;;4590546;19;20007;-72
2023/09/22 10:51:54;;;;;;;3.97;2.55;;;22.90;99.90;;;;;;4591326;19;20441;-71